Página principal
METAR-TAF:

METAR-TAF

Aeroportos :

Foz do Iguaçu, Paraná, Brasil

Aeroporto Internacional de Foz do Iguaçu

latitude: 25-31S, longitude: 054-35W, altura: 180 m

Observação actual do tempo

O boletim foi feito há 46 minutos, às 11:00 UTC
Vento 9 kt de es-sudeste
Temperatura 23°C
Humidade 78%
Pressão 1014 hPa
Visibilidade 10 km ou mais
sem nuvens abaixo de 1500 metros e sem cumulonimbus

METAR: SBFI 241100Z 11009KT CAVOK 23/19 Q1014

Hora: 08:46 (11:46 UTC)

Previsão

O boletim foi feito há 2 horas e 6 minutos, às 09:40 UTC
Previsão válida de 24 às 12 UTC a 25 às 12 UTC
Vento 5 kt de es-sudeste
Visibilidade 10 km ou mais
sem nuvens abaixo de 1500 metros e sem cumulonimbus

TAF: SBFI 240940Z 2412/2512 12005KT CAVOK TX32/2418Z TN17/2508Z RMK PE B

Observações e previsões do tempo de mais de 4000 aeroportos (mensagens METAR e TAF).

As estações disponíveis são os pontos amarelos e vermelhos sobre o mapa.

Mova o rato sobre o mapa para ver o nome da estação.

Depois clique no ponto para visualizar as observações e previsões meteorológicas.

Para alterar o mapa : clique nos botões verdes com uma cruz preta para aumentar o zoom; no botão verde com uma pitada de zoom; ou nas setas verdes para mapas adjacentes.


METAR-TAF: